sensor_id;sensor_type;location;lat;lon;timestamp;temperature;humidity
64654;DHT22;51065;48.884;12.598;2024-02-14T00:00:12;0.10;99.90
64654;DHT22;51065;48.884;12.598;2024-02-14T00:02:43;0.00;99.90
64654;DHT22;51065;48.884;12.598;2024-02-14T00:05:09;0.10;99.90
64654;DHT22;51065;48.884;12.598;2024-02-14T00:07:39;0.40;99.90
64654;DHT22;51065;48.884;12.598;2024-02-14T00:10:07;0.70;99.90
64654;DHT22;51065;48.884;12.598;2024-02-14T00:12:34;0.60;99.90
64654;DHT22;51065;48.884;12.598;2024-02-14T00:15:02;0.40;99.90
64654;DHT22;51065;48.884;12.598;2024-02-14T00:17:28;0.20;99.90
64654;DHT22;51065;48.884;12.598;2024-02-14T00:19:54;0.20;99.90
64654;DHT22;51065;48.884;12.598;2024-02-14T00:22:21;0.20;99.90
64654;DHT22;51065;48.884;12.598;2024-02-14T00:24:47;0.20;99.90
64654;DHT22;51065;48.884;12.598;2024-02-14T00:27:15;0.30;99.90
64654;DHT22;51065;48.884;12.598;2024-02-14T00:29:42;0.40;99.90
64654;DHT22;51065;48.884;12.598;2024-02-14T00:32:12;0.50;99.90
64654;DHT22;51065;48.884;12.598;2024-02-14T00:34:38;0.60;99.90
64654;DHT22;51065;48.884;12.598;2024-02-14T00:37:07;0.50;99.90
64654;DHT22;51065;48.884;12.598;2024-02-14T00:39:32;0.50;99.90
64654;DHT22;51065;48.884;12.598;2024-02-14T00:41:58;0.40;99.90
64654;DHT22;51065;48.884;12.598;2024-02-14T00:44:24;0.50;99.90
64654;DHT22;51065;48.884;12.598;2024-02-14T00:46:56;0.40;99.90
64654;DHT22;51065;48.884;12.598;2024-02-14T00:49:22;0.40;99.90
64654;DHT22;51065;48.884;12.598;2024-02-14T00:51:48;0.40;99.90
64654;DHT22;51065;48.884;12.598;2024-02-14T00:54:13;0.50;99.90
64654;DHT22;51065;48.884;12.598;2024-02-14T00:56:39;0.50;99.90
64654;DHT22;51065;48.884;12.598;2024-02-14T00:59:05;0.60;99.90
64654;DHT22;51065;48.884;12.598;2024-02-14T01:01:32;0.60;99.90
64654;DHT22;51065;48.884;12.598;2024-02-14T01:04:03;0.50;99.90
64654;DHT22;51065;48.884;12.598;2024-02-14T01:06:30;0.60;99.90
64654;DHT22;51065;48.884;12.598;2024-02-14T01:08:59;0.50;99.90
64654;DHT22;51065;48.884;12.598;2024-02-14T01:11:28;0.50;99.90
64654;DHT22;51065;48.884;12.598;2024-02-14T01:13:53;0.40;99.90
64654;DHT22;51065;48.884;12.598;2024-02-14T01:16:19;0.30;99.90
64654;DHT22;51065;48.884;12.598;2024-02-14T01:18:46;0.20;99.90
64654;DHT22;51065;48.884;12.598;2024-02-14T01:21:11;0.10;99.90
64654;DHT22;51065;48.884;12.598;2024-02-14T01:23:37;0.00;99.90
64654;DHT22;51065;48.884;12.598;2024-02-14T01:26:03;0.00;99.90
64654;DHT22;51065;48.884;12.598;2024-02-14T01:28:29;0.00;99.90
64654;DHT22;51065;48.884;12.598;2024-02-14T01:30:55;0.00;99.90
64654;DHT22;51065;48.884;12.598;2024-02-14T01:33:22;-0.10;99.90
64654;DHT22;51065;48.884;12.598;2024-02-14T01:35:53;-0.10;99.90
64654;DHT22;51065;48.884;12.598;2024-02-14T01:38:18;0.20;99.90
64654;DHT22;51065;48.884;12.598;2024-02-14T01:40:44;0.40;99.90
64654;DHT22;51065;48.884;12.598;2024-02-14T01:43:11;0.70;99.90
64654;DHT22;51065;48.884;12.598;2024-02-14T01:45:39;0.90;99.90
64654;DHT22;51065;48.884;12.598;2024-02-14T01:48:05;1.00;99.90
64654;DHT22;51065;48.884;12.598;2024-02-14T01:50:31;0.90;99.90
64654;DHT22;51065;48.884;12.598;2024-02-14T01:53:04;0.90;99.90
64654;DHT22;51065;48.884;12.598;2024-02-14T01:55:30;0.90;99.90
64654;DHT22;51065;48.884;12.598;2024-02-14T01:57:57;0.90;99.90
64654;DHT22;51065;48.884;12.598;2024-02-14T02:00:25;0.90;99.90
64654;DHT22;51065;48.884;12.598;2024-02-14T02:02:51;0.90;99.90
64654;DHT22;51065;48.884;12.598;2024-02-14T02:05:17;0.90;99.90
64654;DHT22;51065;48.884;12.598;2024-02-14T02:07:44;1.00;99.90
64654;DHT22;51065;48.884;12.598;2024-02-14T02:10:11;1.10;99.90
64654;DHT22;51065;48.884;12.598;2024-02-14T02:12:37;1.20;99.90
64654;DHT22;51065;48.884;12.598;2024-02-14T02:15:07;1.30;99.90
64654;DHT22;51065;48.884;12.598;2024-02-14T02:17:36;1.30;99.90
64654;DHT22;51065;48.884;12.598;2024-02-14T02:20:05;1.40;99.90
64654;DHT22;51065;48.884;12.598;2024-02-14T02:22:35;1.50;99.90
64654;DHT22;51065;48.884;12.598;2024-02-14T02:25:02;1.50;99.90
64654;DHT22;51065;48.884;12.598;2024-02-14T02:27:28;1.50;99.90
64654;DHT22;51065;48.884;12.598;2024-02-14T02:29:53;1.50;99.90
64654;DHT22;51065;48.884;12.598;2024-02-14T02:32:19;1.60;99.90
64654;DHT22;51065;48.884;12.598;2024-02-14T02:34:44;1.60;99.90
64654;DHT22;51065;48.884;12.598;2024-02-14T02:37:11;1.60;99.90
64654;DHT22;51065;48.884;12.598;2024-02-14T02:39:40;1.70;99.90
64654;DHT22;51065;48.884;12.598;2024-02-14T02:42:08;1.70;99.90
64654;DHT22;51065;48.884;12.598;2024-02-14T02:44:38;1.70;99.90
64654;DHT22;51065;48.884;12.598;2024-02-14T02:47:03;1.80;99.90
64654;DHT22;51065;48.884;12.598;2024-02-14T02:49:30;1.80;99.90
64654;DHT22;51065;48.884;12.598;2024-02-14T02:52:03;1.80;99.90
64654;DHT22;51065;48.884;12.598;2024-02-14T02:54:34;1.80;99.90
64654;DHT22;51065;48.884;12.598;2024-02-14T02:57:03;1.80;99.90
64654;DHT22;51065;48.884;12.598;2024-02-14T02:59:29;1.80;99.90
64654;DHT22;51065;48.884;12.598;2024-02-14T03:01:55;1.80;99.90
64654;DHT22;51065;48.884;12.598;2024-02-14T03:04:21;1.70;99.90
64654;DHT22;51065;48.884;12.598;2024-02-14T03:06:47;1.70;99.90
64654;DHT22;51065;48.884;12.598;2024-02-14T03:09:12;1.70;99.90
64654;DHT22;51065;48.884;12.598;2024-02-14T03:11:39;1.60;99.90
64654;DHT22;51065;48.884;12.598;2024-02-14T03:14:05;1.60;99.90
64654;DHT22;51065;48.884;12.598;2024-02-14T03:16:31;1.60;99.90
64654;DHT22;51065;48.884;12.598;2024-02-14T03:18:57;1.60;99.90
64654;DHT22;51065;48.884;12.598;2024-02-14T03:21:26;1.60;99.90
64654;DHT22;51065;48.884;12.598;2024-02-14T03:23:52;1.60;99.90
64654;DHT22;51065;48.884;12.598;2024-02-14T03:26:19;1.60;99.90
64654;DHT22;51065;48.884;12.598;2024-02-14T03:28:45;1.60;99.90
64654;DHT22;51065;48.884;12.598;2024-02-14T03:31:10;1.60;99.90
64654;DHT22;51065;48.884;12.598;2024-02-14T03:33:37;1.60;99.90
64654;DHT22;51065;48.884;12.598;2024-02-14T03:36:02;1.60;99.90
64654;DHT22;51065;48.884;12.598;2024-02-14T03:38:28;1.50;99.90
64654;DHT22;51065;48.884;12.598;2024-02-14T03:40:54;1.50;99.90
64654;DHT22;51065;48.884;12.598;2024-02-14T03:43:20;1.50;99.90
64654;DHT22;51065;48.884;12.598;2024-02-14T03:45:47;1.50;99.90
64654;DHT22;51065;48.884;12.598;2024-02-14T03:48:12;1.40;99.90
64654;DHT22;51065;48.884;12.598;2024-02-14T03:50:39;1.30;99.90
64654;DHT22;51065;48.884;12.598;2024-02-14T03:53:04;1.40;99.90
64654;DHT22;51065;48.884;12.598;2024-02-14T03:55:31;1.40;99.90
64654;DHT22;51065;48.884;12.598;2024-02-14T03:57:57;1.40;99.90
64654;DHT22;51065;48.884;12.598;2024-02-14T04:00:22;1.40;99.90
64654;DHT22;51065;48.884;12.598;2024-02-14T04:02:49;1.30;99.90
64654;DHT22;51065;48.884;12.598;2024-02-14T04:05:16;1.20;99.90
64654;DHT22;51065;48.884;12.598;2024-02-14T04:07:41;1.30;99.90
64654;DHT22;51065;48.884;12.598;2024-02-14T04:10:09;1.30;99.90
64654;DHT22;51065;48.884;12.598;2024-02-14T04:12:35;1.30;99.90
64654;DHT22;51065;48.884;12.598;2024-02-14T04:15:00;1.40;99.90
64654;DHT22;51065;48.884;12.598;2024-02-14T04:17:26;1.40;99.90
64654;DHT22;51065;48.884;12.598;2024-02-14T04:19:52;1.40;99.90
64654;DHT22;51065;48.884;12.598;2024-02-14T04:22:17;1.40;99.90
64654;DHT22;51065;48.884;12.598;2024-02-14T04:24:43;1.40;99.90
64654;DHT22;51065;48.884;12.598;2024-02-14T04:27:08;1.50;99.90
64654;DHT22;51065;48.884;12.598;2024-02-14T04:29:34;1.50;99.90
64654;DHT22;51065;48.884;12.598;2024-02-14T04:32:00;1.50;99.90
64654;DHT22;51065;48.884;12.598;2024-02-14T04:34:26;1.50;99.90
64654;DHT22;51065;48.884;12.598;2024-02-14T04:36:52;1.60;99.90
64654;DHT22;51065;48.884;12.598;2024-02-14T04:39:17;1.60;99.90
64654;DHT22;51065;48.884;12.598;2024-02-14T04:41:43;1.60;99.90
64654;DHT22;51065;48.884;12.598;2024-02-14T04:44:09;1.60;99.90
64654;DHT22;51065;48.884;12.598;2024-02-14T04:46:34;1.50;99.90
64654;DHT22;51065;48.884;12.598;2024-02-14T04:49:04;1.50;99.90
64654;DHT22;51065;48.884;12.598;2024-02-14T04:51:30;1.50;99.90
64654;DHT22;51065;48.884;12.598;2024-02-14T04:53:57;1.40;99.90
64654;DHT22;51065;48.884;12.598;2024-02-14T04:56:25;1.40;99.90
64654;DHT22;51065;48.884;12.598;2024-02-14T04:58:52;1.40;99.90
64654;DHT22;51065;48.884;12.598;2024-02-14T05:01:18;1.40;99.90
64654;DHT22;51065;48.884;12.598;2024-02-14T05:03:44;1.30;99.90
64654;DHT22;51065;48.884;12.598;2024-02-14T05:06:09;1.30;99.90
64654;DHT22;51065;48.884;12.598;2024-02-14T05:08:35;1.30;99.90
64654;DHT22;51065;48.884;12.598;2024-02-14T05:11:00;1.30;99.90
64654;DHT22;51065;48.884;12.598;2024-02-14T05:13:26;1.30;99.90
64654;DHT22;51065;48.884;12.598;2024-02-14T05:15:52;1.30;99.90
64654;DHT22;51065;48.884;12.598;2024-02-14T05:18:17;1.30;99.90
64654;DHT22;51065;48.884;12.598;2024-02-14T05:20:42;1.30;99.90
64654;DHT22;51065;48.884;12.598;2024-02-14T05:23:08;1.30;99.90
64654;DHT22;51065;48.884;12.598;2024-02-14T05:25:34;1.20;99.90
64654;DHT22;51065;48.884;12.598;2024-02-14T05:28:00;1.30;99.90
64654;DHT22;51065;48.884;12.598;2024-02-14T05:30:26;1.30;99.90
64654;DHT22;51065;48.884;12.598;2024-02-14T05:32:52;1.30;99.90
64654;DHT22;51065;48.884;12.598;2024-02-14T05:35:18;1.20;99.90
64654;DHT22;51065;48.884;12.598;2024-02-14T05:37:43;1.10;99.90
64654;DHT22;51065;48.884;12.598;2024-02-14T05:40:11;1.20;99.90
64654;DHT22;51065;48.884;12.598;2024-02-14T05:42:37;1.10;99.90
64654;DHT22;51065;48.884;12.598;2024-02-14T05:45:02;1.00;99.90
64654;DHT22;51065;48.884;12.598;2024-02-14T05:47:29;1.00;99.90
64654;DHT22;51065;48.884;12.598;2024-02-14T05:49:55;1.00;99.90
64654;DHT22;51065;48.884;12.598;2024-02-14T05:52:21;1.00;99.90
64654;DHT22;51065;48.884;12.598;2024-02-14T05:54:47;1.00;99.90
64654;DHT22;51065;48.884;12.598;2024-02-14T05:57:12;1.00;99.90
64654;DHT22;51065;48.884;12.598;2024-02-14T05:59:38;0.90;99.90
64654;DHT22;51065;48.884;12.598;2024-02-14T06:02:03;0.90;99.90
64654;DHT22;51065;48.884;12.598;2024-02-14T06:04:31;0.80;99.90
64654;DHT22;51065;48.884;12.598;2024-02-14T06:06:57;0.90;99.90
64654;DHT22;51065;48.884;12.598;2024-02-14T06:09:22;0.70;99.90
64654;DHT22;51065;48.884;12.598;2024-02-14T06:11:48;0.80;99.90
64654;DHT22;51065;48.884;12.598;2024-02-14T06:14:17;0.90;99.90
64654;DHT22;51065;48.884;12.598;2024-02-14T06:16:42;0.90;99.90
64654;DHT22;51065;48.884;12.598;2024-02-14T06:19:09;0.90;99.90
64654;DHT22;51065;48.884;12.598;2024-02-14T06:21:36;0.80;99.90
64654;DHT22;51065;48.884;12.598;2024-02-14T06:24:01;0.50;99.90
64654;DHT22;51065;48.884;12.598;2024-02-14T06:26:30;0.40;99.90
64654;DHT22;51065;48.884;12.598;2024-02-14T06:28:55;0.40;99.90
64654;DHT22;51065;48.884;12.598;2024-02-14T06:31:22;0.40;99.90
64654;DHT22;51065;48.884;12.598;2024-02-14T06:33:47;0.30;99.90
64654;DHT22;51065;48.884;12.598;2024-02-14T06:36:13;0.50;99.90
64654;DHT22;51065;48.884;12.598;2024-02-14T06:38:39;0.70;99.90
64654;DHT22;51065;48.884;12.598;2024-02-14T06:41:05;0.90;99.90
64654;DHT22;51065;48.884;12.598;2024-02-14T06:43:31;0.80;99.90
64654;DHT22;51065;48.884;12.598;2024-02-14T06:45:57;0.70;99.90
64654;DHT22;51065;48.884;12.598;2024-02-14T06:48:23;0.70;99.90
64654;DHT22;51065;48.884;12.598;2024-02-14T06:50:50;0.70;99.90
64654;DHT22;51065;48.884;12.598;2024-02-14T06:53:16;0.90;99.90
64654;DHT22;51065;48.884;12.598;2024-02-14T06:55:42;1.10;99.90
64654;DHT22;51065;48.884;12.598;2024-02-14T06:58:07;1.20;99.90
64654;DHT22;51065;48.884;12.598;2024-02-14T07:00:33;1.30;99.90
64654;DHT22;51065;48.884;12.598;2024-02-14T07:02:59;1.40;99.90
64654;DHT22;51065;48.884;12.598;2024-02-14T07:05:25;1.50;99.90
64654;DHT22;51065;48.884;12.598;2024-02-14T07:07:53;1.60;99.90
64654;DHT22;51065;48.884;12.598;2024-02-14T07:10:18;1.60;99.90
64654;DHT22;51065;48.884;12.598;2024-02-14T07:12:44;1.70;99.90
64654;DHT22;51065;48.884;12.598;2024-02-14T07:15:09;1.80;99.90
64654;DHT22;51065;48.884;12.598;2024-02-14T07:17:35;1.80;99.90
64654;DHT22;51065;48.884;12.598;2024-02-14T07:20:01;1.80;99.90
64654;DHT22;51065;48.884;12.598;2024-02-14T07:22:27;1.90;99.90
64654;DHT22;51065;48.884;12.598;2024-02-14T07:24:52;2.00;99.90
64654;DHT22;51065;48.884;12.598;2024-02-14T07:27:19;2.00;99.90
64654;DHT22;51065;48.884;12.598;2024-02-14T07:29:46;2.10;99.90
64654;DHT22;51065;48.884;12.598;2024-02-14T07:32:11;2.10;99.90
64654;DHT22;51065;48.884;12.598;2024-02-14T07:34:40;2.10;99.90
64654;DHT22;51065;48.884;12.598;2024-02-14T07:37:06;2.10;99.90
64654;DHT22;51065;48.884;12.598;2024-02-14T07:39:32;2.10;99.90
64654;DHT22;51065;48.884;12.598;2024-02-14T07:42:00;2.10;99.90
64654;DHT22;51065;48.884;12.598;2024-02-14T07:44:26;2.20;99.90
64654;DHT22;51065;48.884;12.598;2024-02-14T07:46:52;2.20;99.90
64654;DHT22;51065;48.884;12.598;2024-02-14T07:49:18;2.30;99.90
64654;DHT22;51065;48.884;12.598;2024-02-14T07:51:45;2.40;99.90
64654;DHT22;51065;48.884;12.598;2024-02-14T07:54:10;2.50;99.90
64654;DHT22;51065;48.884;12.598;2024-02-14T07:56:36;2.50;99.90
64654;DHT22;51065;48.884;12.598;2024-02-14T07:59:02;2.60;99.90
64654;DHT22;51065;48.884;12.598;2024-02-14T08:01:28;2.60;99.90
64654;DHT22;51065;48.884;12.598;2024-02-14T08:03:54;2.70;99.90
64654;DHT22;51065;48.884;12.598;2024-02-14T08:06:20;2.70;99.90
64654;DHT22;51065;48.884;12.598;2024-02-14T08:08:45;2.70;99.90
64654;DHT22;51065;48.884;12.598;2024-02-14T08:11:11;2.80;99.90
64654;DHT22;51065;48.884;12.598;2024-02-14T08:13:37;2.80;99.90
64654;DHT22;51065;48.884;12.598;2024-02-14T08:16:05;2.90;99.90
64654;DHT22;51065;48.884;12.598;2024-02-14T08:18:32;2.90;99.90
64654;DHT22;51065;48.884;12.598;2024-02-14T08:20:58;3.00;99.90
64654;DHT22;51065;48.884;12.598;2024-02-14T08:23:23;3.00;56.10
64654;DHT22;51065;48.884;12.598;2024-02-14T08:25:49;3.10;70.10
64654;DHT22;51065;48.884;12.598;2024-02-14T08:28:15;3.10;1.00
64654;DHT22;51065;48.884;12.598;2024-02-14T08:30:43;3.10;1.00
64654;DHT22;51065;48.884;12.598;2024-02-14T08:33:08;3.10;1.00
64654;DHT22;51065;48.884;12.598;2024-02-14T08:35:36;3.10;1.00
64654;DHT22;51065;48.884;12.598;2024-02-14T08:38:01;3.20;1.00
64654;DHT22;51065;48.884;12.598;2024-02-14T08:40:27;3.20;1.00
64654;DHT22;51065;48.884;12.598;2024-02-14T08:42:52;3.30;1.00
64654;DHT22;51065;48.884;12.598;2024-02-14T08:45:18;3.50;1.00
64654;DHT22;51065;48.884;12.598;2024-02-14T08:47:44;3.50;99.90
64654;DHT22;51065;48.884;12.598;2024-02-14T08:50:10;3.60;1.00
64654;DHT22;51065;48.884;12.598;2024-02-14T08:52:35;3.50;99.90
64654;DHT22;51065;48.884;12.598;2024-02-14T08:55:03;3.60;99.90
64654;DHT22;51065;48.884;12.598;2024-02-14T08:57:29;3.70;99.90
64654;DHT22;51065;48.884;12.598;2024-02-14T08:59:56;3.90;1.00
64654;DHT22;51065;48.884;12.598;2024-02-14T09:02:22;4.10;99.90
64654;DHT22;51065;48.884;12.598;2024-02-14T09:04:48;4.40;99.90
64654;DHT22;51065;48.884;12.598;2024-02-14T09:07:15;4.80;99.90
64654;DHT22;51065;48.884;12.598;2024-02-14T09:09:41;5.10;1.00
64654;DHT22;51065;48.884;12.598;2024-02-14T09:12:07;5.50;99.90
64654;DHT22;51065;48.884;12.598;2024-02-14T09:14:33;5.50;1.00
64654;DHT22;51065;48.884;12.598;2024-02-14T09:16:58;5.30;28.60
64654;DHT22;51065;48.884;12.598;2024-02-14T09:19:24;5.30;1.00
64654;DHT22;51065;48.884;12.598;2024-02-14T09:21:50;5.50;1.00
64654;DHT22;51065;48.884;12.598;2024-02-14T09:24:16;5.60;99.90
64654;DHT22;51065;48.884;12.598;2024-02-14T09:26:42;5.40;28.60
64654;DHT22;51065;48.884;12.598;2024-02-14T09:29:08;5.10;99.90
64654;DHT22;51065;48.884;12.598;2024-02-14T09:31:36;4.90;99.90
64654;DHT22;51065;48.884;12.598;2024-02-14T09:34:02;4.90;1.00
64654;DHT22;51065;48.884;12.598;2024-02-14T09:36:28;4.90;1.00
64654;DHT22;51065;48.884;12.598;2024-02-14T09:38:54;5.00;99.90
64654;DHT22;51065;48.884;12.598;2024-02-14T09:41:26;5.40;1.00
64654;DHT22;51065;48.884;12.598;2024-02-14T09:43:55;5.50;1.00
64654;DHT22;51065;48.884;12.598;2024-02-14T09:46:24;5.30;1.00
64654;DHT22;51065;48.884;12.598;2024-02-14T09:48:52;5.20;99.90
64654;DHT22;51065;48.884;12.598;2024-02-14T09:51:19;5.10;1.00
64654;DHT22;51065;48.884;12.598;2024-02-14T09:53:44;5.00;1.00
64654;DHT22;51065;48.884;12.598;2024-02-14T09:56:11;5.20;99.90
64654;DHT22;51065;48.884;12.598;2024-02-14T09:58:43;5.30;1.00
64654;DHT22;51065;48.884;12.598;2024-02-14T10:01:08;5.50;1.00
64654;DHT22;51065;48.884;12.598;2024-02-14T10:03:34;5.60;58.20
64654;DHT22;51065;48.884;12.598;2024-02-14T10:06:02;5.60;99.90
64654;DHT22;51065;48.884;12.598;2024-02-14T10:08:35;5.70;1.00
64654;DHT22;51065;48.884;12.598;2024-02-14T10:11:02;5.80;1.00
64654;DHT22;51065;48.884;12.598;2024-02-14T10:13:29;6.00;1.00
64654;DHT22;51065;48.884;12.598;2024-02-14T10:15:57;5.90;99.90
64654;DHT22;51065;48.884;12.598;2024-02-14T10:18:22;6.10;99.90
64654;DHT22;51065;48.884;12.598;2024-02-14T10:20:56;6.20;99.90
64654;DHT22;51065;48.884;12.598;2024-02-14T10:23:22;6.30;82.60
64654;DHT22;51065;48.884;12.598;2024-02-14T10:25:52;6.10;1.00
64654;DHT22;51065;48.884;12.598;2024-02-14T10:28:18;6.10;99.90
64654;DHT22;51065;48.884;12.598;2024-02-14T10:30:47;6.10;1.00
64654;DHT22;51065;48.884;12.598;2024-02-14T10:33:15;6.00;99.90
64654;DHT22;51065;48.884;12.598;2024-02-14T10:35:42;6.00;99.90
64654;DHT22;51065;48.884;12.598;2024-02-14T10:38:08;6.00;71.90
64654;DHT22;51065;48.884;12.598;2024-02-14T10:40:35;6.00;99.90
64654;DHT22;51065;48.884;12.598;2024-02-14T10:43:02;5.90;99.90
64654;DHT22;51065;48.884;12.598;2024-02-14T10:45:27;6.10;92.60
64654;DHT22;51065;48.884;12.598;2024-02-14T10:47:53;6.20;13.50
64654;DHT22;51065;48.884;12.598;2024-02-14T10:50:24;6.20;99.90
64654;DHT22;51065;48.884;12.598;2024-02-14T10:52:54;6.20;99.90
64654;DHT22;51065;48.884;12.598;2024-02-14T10:55:24;6.00;99.90
64654;DHT22;51065;48.884;12.598;2024-02-14T10:57:53;5.90;99.90
64654;DHT22;51065;48.884;12.598;2024-02-14T11:00:20;6.00;1.00
64654;DHT22;51065;48.884;12.598;2024-02-14T11:02:47;6.20;1.00
64654;DHT22;51065;48.884;12.598;2024-02-14T11:05:15;6.30;99.90
64654;DHT22;51065;48.884;12.598;2024-02-14T11:07:46;6.30;99.90
64654;DHT22;51065;48.884;12.598;2024-02-14T11:10:16;6.50;29.30
64654;DHT22;51065;48.884;12.598;2024-02-14T11:12:42;6.50;1.00
64654;DHT22;51065;48.884;12.598;2024-02-14T11:17:39;6.50;99.90
64654;DHT22;51065;48.884;12.598;2024-02-14T11:20:16;6.40;1.00
64654;DHT22;51065;48.884;12.598;2024-02-14T11:22:56;6.30;1.00
64654;DHT22;51065;48.884;12.598;2024-02-14T11:25:29;6.20;99.90
64654;DHT22;51065;48.884;12.598;2024-02-14T11:27:58;6.20;99.90
64654;DHT22;51065;48.884;12.598;2024-02-14T11:30:33;6.40;1.00
64654;DHT22;51065;48.884;12.598;2024-02-14T11:33:23;6.50;99.90
64654;DHT22;51065;48.884;12.598;2024-02-14T11:35:53;6.60;1.00
64654;DHT22;51065;48.884;12.598;2024-02-14T11:38:20;6.70;1.00
64654;DHT22;51065;48.884;12.598;2024-02-14T11:40:46;6.50;1.00
64654;DHT22;51065;48.884;12.598;2024-02-14T11:43:16;6.50;1.00
64654;DHT22;51065;48.884;12.598;2024-02-14T11:45:45;6.60;99.90
64654;DHT22;51065;48.884;12.598;2024-02-14T11:48:15;6.70;1.00
64654;DHT22;51065;48.884;12.598;2024-02-14T11:50:45;6.80;1.00
64654;DHT22;51065;48.884;12.598;2024-02-14T11:53:15;6.70;99.90
64654;DHT22;51065;48.884;12.598;2024-02-14T11:55:47;6.60;4.40
64654;DHT22;51065;48.884;12.598;2024-02-14T11:58:14;6.40;99.90
64654;DHT22;51065;48.884;12.598;2024-02-14T12:00:45;6.40;99.90
64654;DHT22;51065;48.884;12.598;2024-02-14T12:03:19;6.60;99.90
64654;DHT22;51065;48.884;12.598;2024-02-14T12:05:49;6.70;1.00
64654;DHT22;51065;48.884;12.598;2024-02-14T12:08:20;6.50;1.00
64654;DHT22;51065;48.884;12.598;2024-02-14T12:10:47;6.50;1.00
64654;DHT22;51065;48.884;12.598;2024-02-14T12:13:15;6.40;99.90
64654;DHT22;51065;48.884;12.598;2024-02-14T12:15:45;6.20;1.00
64654;DHT22;51065;48.884;12.598;2024-02-14T12:18:11;6.20;99.90
64654;DHT22;51065;48.884;12.598;2024-02-14T12:20:42;6.10;99.90
64654;DHT22;51065;48.884;12.598;2024-02-14T12:23:15;6.20;99.90
64654;DHT22;51065;48.884;12.598;2024-02-14T12:25:47;6.30;99.90
64654;DHT22;51065;48.884;12.598;2024-02-14T12:28:15;6.50;99.90
64654;DHT22;51065;48.884;12.598;2024-02-14T12:30:50;6.60;99.90
64654;DHT22;51065;48.884;12.598;2024-02-14T12:33:18;6.70;1.00
64654;DHT22;51065;48.884;12.598;2024-02-14T12:35:50;6.60;15.60
64654;DHT22;51065;48.884;12.598;2024-02-14T12:38:17;6.60;1.00
64654;DHT22;51065;48.884;12.598;2024-02-14T12:40:46;6.70;99.90
64654;DHT22;51065;48.884;12.598;2024-02-14T12:43:14;6.70;1.00
64654;DHT22;51065;48.884;12.598;2024-02-14T12:45:41;6.60;1.00
64654;DHT22;51065;48.884;12.598;2024-02-14T12:48:08;6.40;99.90
64654;DHT22;51065;48.884;12.598;2024-02-14T12:50:34;6.40;99.90
64654;DHT22;51065;48.884;12.598;2024-02-14T12:53:01;6.40;99.90
64654;DHT22;51065;48.884;12.598;2024-02-14T12:55:27;6.40;89.40
64654;DHT22;51065;48.884;12.598;2024-02-14T12:57:55;6.30;8.70
64654;DHT22;51065;48.884;12.598;2024-02-14T13:00:21;6.30;18.50
64654;DHT22;51065;48.884;12.598;2024-02-14T13:02:48;6.50;99.90
64654;DHT22;51065;48.884;12.598;2024-02-14T13:05:14;6.60;1.00
64654;DHT22;51065;48.884;12.598;2024-02-14T13:07:40;6.60;1.00
64654;DHT22;51065;48.884;12.598;2024-02-14T13:10:06;6.70;99.90
64654;DHT22;51065;48.884;12.598;2024-02-14T13:12:33;6.80;1.00
64654;DHT22;51065;48.884;12.598;2024-02-14T13:14:59;6.60;21.80
64654;DHT22;51065;48.884;12.598;2024-02-14T13:17:24;6.60;96.90
64654;DHT22;51065;48.884;12.598;2024-02-14T13:19:51;6.60;99.90
64654;DHT22;51065;48.884;12.598;2024-02-14T13:22:18;6.40;99.90
64654;DHT22;51065;48.884;12.598;2024-02-14T13:24:44;6.40;1.00
64654;DHT22;51065;48.884;12.598;2024-02-14T13:27:10;6.50;97.90
64654;DHT22;51065;48.884;12.598;2024-02-14T13:29:35;6.40;97.60
64654;DHT22;51065;48.884;12.598;2024-02-14T13:32:01;6.50;1.00
64654;DHT22;51065;48.884;12.598;2024-02-14T13:34:28;6.50;92.20
64654;DHT22;51065;48.884;12.598;2024-02-14T13:36:53;6.70;99.90
64654;DHT22;51065;48.884;12.598;2024-02-14T13:39:19;6.70;71.80
64654;DHT22;51065;48.884;12.598;2024-02-14T13:41:45;6.70;1.00
64654;DHT22;51065;48.884;12.598;2024-02-14T13:44:11;6.80;1.00
64654;DHT22;51065;48.884;12.598;2024-02-14T13:46:36;6.80;1.00
64654;DHT22;51065;48.884;12.598;2024-02-14T13:49:03;6.80;99.90
64654;DHT22;51065;48.884;12.598;2024-02-14T13:51:28;7.00;99.90
64654;DHT22;51065;48.884;12.598;2024-02-14T13:53:54;7.00;1.00
64654;DHT22;51065;48.884;12.598;2024-02-14T13:56:21;7.00;1.00
64654;DHT22;51065;48.884;12.598;2024-02-14T13:58:48;7.00;1.00
64654;DHT22;51065;48.884;12.598;2024-02-14T14:01:17;7.10;16.40
64654;DHT22;51065;48.884;12.598;2024-02-14T14:03:43;7.20;1.00
64654;DHT22;51065;48.884;12.598;2024-02-14T14:06:08;7.10;99.90
64654;DHT22;51065;48.884;12.598;2024-02-14T14:08:35;7.20;1.00
64654;DHT22;51065;48.884;12.598;2024-02-14T14:11:02;7.30;99.90
64654;DHT22;51065;48.884;12.598;2024-02-14T14:13:28;7.10;99.90
64654;DHT22;51065;48.884;12.598;2024-02-14T14:16:02;7.20;99.90
64654;DHT22;51065;48.884;12.598;2024-02-14T14:18:30;7.10;99.90
64654;DHT22;51065;48.884;12.598;2024-02-14T14:20:56;7.30;1.00
64654;DHT22;51065;48.884;12.598;2024-02-14T14:23:21;7.30;99.90
64654;DHT22;51065;48.884;12.598;2024-02-14T14:25:47;7.20;1.00
64654;DHT22;51065;48.884;12.598;2024-02-14T14:28:13;7.20;90.20
64654;DHT22;51065;48.884;12.598;2024-02-14T14:30:40;7.10;99.90
64654;DHT22;51065;48.884;12.598;2024-02-14T14:33:05;7.20;99.90
64654;DHT22;51065;48.884;12.598;2024-02-14T14:35:33;7.20;99.90
64654;DHT22;51065;48.884;12.598;2024-02-14T14:37:59;7.30;1.00
64654;DHT22;51065;48.884;12.598;2024-02-14T14:40:25;7.30;7.90
64654;DHT22;51065;48.884;12.598;2024-02-14T14:42:51;7.30;1.00
64654;DHT22;51065;48.884;12.598;2024-02-14T14:45:18;7.20;1.00
64654;DHT22;51065;48.884;12.598;2024-02-14T14:47:44;7.20;1.00
64654;DHT22;51065;48.884;12.598;2024-02-14T14:50:10;7.30;99.90
64654;DHT22;51065;48.884;12.598;2024-02-14T14:52:38;7.30;99.90
64654;DHT22;51065;48.884;12.598;2024-02-14T14:55:05;7.30;1.00
64654;DHT22;51065;48.884;12.598;2024-02-14T14:57:30;7.20;1.00
64654;DHT22;51065;48.884;12.598;2024-02-14T14:59:56;7.20;99.90
64654;DHT22;51065;48.884;12.598;2024-02-14T15:02:22;7.10;32.60
64654;DHT22;51065;48.884;12.598;2024-02-14T15:04:48;7.10;82.00
64654;DHT22;51065;48.884;12.598;2024-02-14T15:07:13;7.10;86.80
64654;DHT22;51065;48.884;12.598;2024-02-14T15:09:40;7.10;99.90
64654;DHT22;51065;48.884;12.598;2024-02-14T15:12:06;7.10;99.90
64654;DHT22;51065;48.884;12.598;2024-02-14T15:14:33;7.10;99.90
64654;DHT22;51065;48.884;12.598;2024-02-14T15:16:58;7.00;58.40
64654;DHT22;51065;48.884;12.598;2024-02-14T15:19:24;7.00;59.50
64654;DHT22;51065;48.884;12.598;2024-02-14T15:21:50;7.00;99.90
64654;DHT22;51065;48.884;12.598;2024-02-14T15:24:16;7.00;99.90
64654;DHT22;51065;48.884;12.598;2024-02-14T15:26:41;7.00;99.90
64654;DHT22;51065;48.884;12.598;2024-02-14T15:29:24;7.00;99.90
64654;DHT22;51065;48.884;12.598;2024-02-14T15:32:08;7.00;99.90